sensor_id;sensor_type;location;lat;lon;timestamp;pressure;altitude;pressure_sealevel;temperature
74536;BMP180;63013;51.104;-115.370;2023-01-09T00:01:48;85986.80;;;23.00
74536;BMP180;63013;51.104;-115.370;2023-01-09T00:04:17;85983.60;;;23.00
74536;BMP180;63013;51.104;-115.370;2023-01-09T00:06:44;85987.40;;;23.00
74536;BMP180;63013;51.104;-115.370;2023-01-09T00:09:21;85994.60;;;22.98
74536;BMP180;63013;51.104;-115.370;2023-01-09T00:11:48;85995.60;;;22.98
74536;BMP180;63013;51.104;-115.370;2023-01-09T00:14:17;86002.60;;;22.90
74536;BMP180;63013;51.104;-115.370;2023-01-09T00:16:45;85998.40;;;22.90
74536;BMP180;63013;51.104;-115.370;2023-01-09T00:19:12;85994.60;;;22.90
74536;BMP180;63013;51.104;-115.370;2023-01-09T00:21:40;85999.40;;;22.90
74536;BMP180;63013;51.104;-115.370;2023-01-09T00:24:08;86006.60;;;22.90
74536;BMP180;63013;51.104;-115.370;2023-01-09T00:26:35;86003.80;;;22.90
74536;BMP180;63013;51.104;-115.370;2023-01-09T00:29:03;86014.20;;;22.90
74536;BMP180;63013;51.104;-115.370;2023-01-09T00:31:30;86007.60;;;22.90
74536;BMP180;63013;51.104;-115.370;2023-01-09T00:34:00;86008.20;;;22.90
74536;BMP180;63013;51.104;-115.370;2023-01-09T00:36:29;86013.00;;;22.90
74536;BMP180;63013;51.104;-115.370;2023-01-09T00:38:57;86012.40;;;22.98
74536;BMP180;63013;51.104;-115.370;2023-01-09T00:41:47;86014.40;;;23.00
74536;BMP180;63013;51.104;-115.370;2023-01-09T00:44:33;86012.60;;;23.00
74536;BMP180;63013;51.104;-115.370;2023-01-09T00:47:10;86013.00;;;23.00
74536;BMP180;63013;51.104;-115.370;2023-01-09T00:49:41;86010.00;;;23.00
74536;BMP180;63013;51.104;-115.370;2023-01-09T00:52:10;85996.00;;;23.00
74536;BMP180;63013;51.104;-115.370;2023-01-09T00:54:42;85992.80;;;23.00
74536;BMP180;63013;51.104;-115.370;2023-01-09T00:57:13;85990.60;;;23.00
74536;BMP180;63013;51.104;-115.370;2023-01-09T00:59:41;85986.20;;;23.00
74536;BMP180;63013;51.104;-115.370;2023-01-09T01:02:09;85978.60;;;23.00
74536;BMP180;63013;51.104;-115.370;2023-01-09T01:04:36;85973.60;;;23.00
74536;BMP180;63013;51.104;-115.370;2023-01-09T01:07:26;85965.80;;;23.00
74536;BMP180;63013;51.104;-115.370;2023-01-09T01:10:19;85962.60;;;23.00
74536;BMP180;63013;51.104;-115.370;2023-01-09T01:12:49;85959.00;;;23.00
74536;BMP180;63013;51.104;-115.370;2023-01-09T01:15:17;85955.80;;;23.00
74536;BMP180;63013;51.104;-115.370;2023-01-09T01:17:45;85961.40;;;23.00
74536;BMP180;63013;51.104;-115.370;2023-01-09T01:20:16;85965.40;;;23.00
74536;BMP180;63013;51.104;-115.370;2023-01-09T01:22:44;85971.40;;;23.00
74536;BMP180;63013;51.104;-115.370;2023-01-09T01:25:17;85972.40;;;23.00
74536;BMP180;63013;51.104;-115.370;2023-01-09T01:27:45;85974.00;;;23.00
74536;BMP180;63013;51.104;-115.370;2023-01-09T01:30:23;85977.80;;;23.00
74536;BMP180;63013;51.104;-115.370;2023-01-09T01:32:50;85982.00;;;23.00
74536;BMP180;63013;51.104;-115.370;2023-01-09T01:35:17;85974.40;;;23.00
74536;BMP180;63013;51.104;-115.370;2023-01-09T01:37:44;85975.20;;;23.00
74536;BMP180;63013;51.104;-115.370;2023-01-09T01:40:16;85972.80;;;23.00
74536;BMP180;63013;51.104;-115.370;2023-01-09T01:42:56;85969.40;;;23.00
74536;BMP180;63013;51.104;-115.370;2023-01-09T01:45:27;85964.60;;;23.00
74536;BMP180;63013;51.104;-115.370;2023-01-09T01:48:23;85960.00;;;23.00
74536;BMP180;63013;51.104;-115.370;2023-01-09T01:51:02;85965.00;;;23.00
74536;BMP180;63013;51.104;-115.370;2023-01-09T01:53:49;85965.40;;;23.00
74536;BMP180;63013;51.104;-115.370;2023-01-09T01:56:27;85969.20;;;23.00
74536;BMP180;63013;51.104;-115.370;2023-01-09T02:01:48;85968.60;;;23.00
74536;BMP180;63013;51.104;-115.370;2023-01-09T02:04:16;85964.20;;;22.92
74536;BMP180;63013;51.104;-115.370;2023-01-09T02:06:47;85967.80;;;22.90
74536;BMP180;63013;51.104;-115.370;2023-01-09T02:09:17;85973.20;;;22.90
74536;BMP180;63013;51.104;-115.370;2023-01-09T02:11:50;85965.60;;;22.90
74536;BMP180;63013;51.104;-115.370;2023-01-09T02:14:24;85969.80;;;22.90
74536;BMP180;63013;51.104;-115.370;2023-01-09T02:20:25;85963.80;;;22.90
74536;BMP180;63013;51.104;-115.370;2023-01-09T02:23:46;85978.20;;;22.90
74536;BMP180;63013;51.104;-115.370;2023-01-09T02:39:26;85964.20;;;22.80
74536;BMP180;63013;51.104;-115.370;2023-01-09T02:42:27;85971.00;;;22.80
74536;BMP180;63013;51.104;-115.370;2023-01-09T02:44:55;85967.40;;;22.76
74536;BMP180;63013;51.104;-115.370;2023-01-09T02:49:54;85962.40;;;22.70
74536;BMP180;63013;51.104;-115.370;2023-01-09T02:53:04;85963.00;;;22.70
74536;BMP180;63013;51.104;-115.370;2023-01-09T02:56:22;85951.60;;;22.70
74536;BMP180;63013;51.104;-115.370;2023-01-09T02:59:14;85949.00;;;22.70
74536;BMP180;63013;51.104;-115.370;2023-01-09T03:09:41;85952.00;;;22.60
74536;BMP180;63013;51.104;-115.370;2023-01-09T03:12:20;85943.80;;;22.60
74536;BMP180;63013;51.104;-115.370;2023-01-09T03:14:52;85942.60;;;22.60
74536;BMP180;63013;51.104;-115.370;2023-01-09T03:17:33;85944.60;;;22.60
74536;BMP180;63013;51.104;-115.370;2023-01-09T03:20:07;85954.40;;;22.50
74536;BMP180;63013;51.104;-115.370;2023-01-09T03:22:48;85952.40;;;22.50
74536;BMP180;63013;51.104;-115.370;2023-01-09T03:25:19;85955.00;;;22.50
74536;BMP180;63013;51.104;-115.370;2023-01-09T03:27:46;85962.80;;;22.50
74536;BMP180;63013;51.104;-115.370;2023-01-09T03:30:14;85967.20;;;22.50
74536;BMP180;63013;51.104;-115.370;2023-01-09T03:32:41;85970.00;;;22.50
74536;BMP180;63013;51.104;-115.370;2023-01-09T03:35:08;85973.60;;;22.42
74536;BMP180;63013;51.104;-115.370;2023-01-09T03:37:36;85978.20;;;22.40
74536;BMP180;63013;51.104;-115.370;2023-01-09T03:40:03;85978.80;;;22.40
74536;BMP180;63013;51.104;-115.370;2023-01-09T03:42:31;85979.60;;;22.40
74536;BMP180;63013;51.104;-115.370;2023-01-09T03:44:58;85974.60;;;22.40
74536;BMP180;63013;51.104;-115.370;2023-01-09T03:47:25;85973.00;;;22.40
74536;BMP180;63013;51.104;-115.370;2023-01-09T03:49:53;85981.80;;;22.40
74536;BMP180;63013;51.104;-115.370;2023-01-09T03:52:20;85981.60;;;22.36
74536;BMP180;63013;51.104;-115.370;2023-01-09T03:54:51;85979.60;;;22.32
74536;BMP180;63013;51.104;-115.370;2023-01-09T03:57:18;85974.00;;;22.30
74536;BMP180;63013;51.104;-115.370;2023-01-09T03:59:45;85979.00;;;22.30
74536;BMP180;63013;51.104;-115.370;2023-01-09T04:02:12;85975.80;;;22.30
74536;BMP180;63013;51.104;-115.370;2023-01-09T04:04:39;85977.40;;;22.30
74536;BMP180;63013;51.104;-115.370;2023-01-09T04:07:06;85973.20;;;22.30
74536;BMP180;63013;51.104;-115.370;2023-01-09T04:09:34;85968.40;;;22.30
74536;BMP180;63013;51.104;-115.370;2023-01-09T04:12:01;85972.60;;;22.30
74536;BMP180;63013;51.104;-115.370;2023-01-09T04:14:28;85973.80;;;22.30
74536;BMP180;63013;51.104;-115.370;2023-01-09T04:16:56;85971.60;;;22.30
74536;BMP180;63013;51.104;-115.370;2023-01-09T04:19:23;85975.80;;;22.26
74536;BMP180;63013;51.104;-115.370;2023-01-09T04:21:51;85968.60;;;22.26
74536;BMP180;63013;51.104;-115.370;2023-01-09T04:24:19;85970.20;;;22.20
74536;BMP180;63013;51.104;-115.370;2023-01-09T04:26:47;85971.40;;;22.20
74536;BMP180;63013;51.104;-115.370;2023-01-09T04:29:14;85978.40;;;22.20
74536;BMP180;63013;51.104;-115.370;2023-01-09T04:31:41;85980.20;;;22.20
74536;BMP180;63013;51.104;-115.370;2023-01-09T04:34:09;85971.60;;;22.20
74536;BMP180;63013;51.104;-115.370;2023-01-09T04:36:36;85963.60;;;22.20
74536;BMP180;63013;51.104;-115.370;2023-01-09T04:39:04;85965.60;;;22.18
74536;BMP180;63013;51.104;-115.370;2023-01-09T04:41:34;85957.20;;;22.10
74536;BMP180;63013;51.104;-115.370;2023-01-09T04:44:19;85962.40;;;22.10
74536;BMP180;63013;51.104;-115.370;2023-01-09T04:46:47;85963.40;;;22.10
74536;BMP180;63013;51.104;-115.370;2023-01-09T04:49:14;85961.80;;;22.10
74536;BMP180;63013;51.104;-115.370;2023-01-09T04:51:42;85967.80;;;22.10
74536;BMP180;63013;51.104;-115.370;2023-01-09T04:54:10;85959.20;;;22.10
74536;BMP180;63013;51.104;-115.370;2023-01-09T04:56:38;85955.20;;;22.10
74536;BMP180;63013;51.104;-115.370;2023-01-09T04:59:07;85956.40;;;22.06
74536;BMP180;63013;51.104;-115.370;2023-01-09T05:01:36;85958.00;;;22.00
74536;BMP180;63013;51.104;-115.370;2023-01-09T05:04:03;85948.80;;;22.00
74536;BMP180;63013;51.104;-115.370;2023-01-09T05:06:31;85955.20;;;22.00
74536;BMP180;63013;51.104;-115.370;2023-01-09T05:09:00;85954.40;;;22.00
74536;BMP180;63013;51.104;-115.370;2023-01-09T05:11:27;85959.60;;;22.00
74536;BMP180;63013;51.104;-115.370;2023-01-09T05:13:55;85957.00;;;22.00
74536;BMP180;63013;51.104;-115.370;2023-01-09T05:16:22;85958.40;;;22.00
74536;BMP180;63013;51.104;-115.370;2023-01-09T05:18:49;85959.80;;;21.96
74536;BMP180;63013;51.104;-115.370;2023-01-09T05:21:23;85959.60;;;21.90
74536;BMP180;63013;51.104;-115.370;2023-01-09T05:23:50;85961.00;;;21.90
74536;BMP180;63013;51.104;-115.370;2023-01-09T05:26:19;85958.00;;;21.90
74536;BMP180;63013;51.104;-115.370;2023-01-09T05:28:55;85953.60;;;21.90
74536;BMP180;63013;51.104;-115.370;2023-01-09T05:31:25;85951.00;;;21.90
74536;BMP180;63013;51.104;-115.370;2023-01-09T05:33:54;85958.00;;;21.90
74536;BMP180;63013;51.104;-115.370;2023-01-09T05:36:22;85953.00;;;21.90
74536;BMP180;63013;51.104;-115.370;2023-01-09T05:38:49;85951.40;;;21.90
74536;BMP180;63013;51.104;-115.370;2023-01-09T05:41:16;85952.40;;;21.80
74536;BMP180;63013;51.104;-115.370;2023-01-09T05:43:43;85954.80;;;21.80
74536;BMP180;63013;51.104;-115.370;2023-01-09T05:46:20;85945.80;;;21.80
74536;BMP180;63013;51.104;-115.370;2023-01-09T05:48:49;85948.20;;;21.80
74536;BMP180;63013;51.104;-115.370;2023-01-09T05:51:17;85945.00;;;21.80
74536;BMP180;63013;51.104;-115.370;2023-01-09T05:53:44;85945.00;;;21.80
74536;BMP180;63013;51.104;-115.370;2023-01-09T05:56:11;85946.60;;;21.80
74536;BMP180;63013;51.104;-115.370;2023-01-09T05:58:42;85944.20;;;21.80
74536;BMP180;63013;51.104;-115.370;2023-01-09T06:01:09;85944.80;;;21.80
74536;BMP180;63013;51.104;-115.370;2023-01-09T06:03:37;85941.60;;;21.78
74536;BMP180;63013;51.104;-115.370;2023-01-09T06:06:07;85944.40;;;21.74
74536;BMP180;63013;51.104;-115.370;2023-01-09T06:08:35;85939.60;;;21.70
74536;BMP180;63013;51.104;-115.370;2023-01-09T06:11:02;85939.20;;;21.70
74536;BMP180;63013;51.104;-115.370;2023-01-09T06:13:29;85934.60;;;21.70
74536;BMP180;63013;51.104;-115.370;2023-01-09T06:15:57;85936.40;;;21.70
74536;BMP180;63013;51.104;-115.370;2023-01-09T06:18:24;85936.60;;;21.70
74536;BMP180;63013;51.104;-115.370;2023-01-09T06:20:52;85936.00;;;21.68
74536;BMP180;63013;51.104;-115.370;2023-01-09T06:23:19;85937.80;;;21.60
74536;BMP180;63013;51.104;-115.370;2023-01-09T06:25:46;85938.80;;;21.60
74536;BMP180;63013;51.104;-115.370;2023-01-09T06:28:14;85941.20;;;21.60
74536;BMP180;63013;51.104;-115.370;2023-01-09T06:30:41;85934.40;;;21.60
74536;BMP180;63013;51.104;-115.370;2023-01-09T06:33:09;85940.20;;;21.60
74536;BMP180;63013;51.104;-115.370;2023-01-09T06:35:36;85937.00;;;21.60
74536;BMP180;63013;51.104;-115.370;2023-01-09T06:38:04;85934.20;;;21.52
74536;BMP180;63013;51.104;-115.370;2023-01-09T06:40:38;85922.80;;;21.50
74536;BMP180;63013;51.104;-115.370;2023-01-09T06:43:06;85936.00;;;21.50
74536;BMP180;63013;51.104;-115.370;2023-01-09T06:45:33;85930.80;;;21.50
74536;BMP180;63013;51.104;-115.370;2023-01-09T06:48:01;85931.40;;;21.50
74536;BMP180;63013;51.104;-115.370;2023-01-09T06:50:28;85931.00;;;21.50
74536;BMP180;63013;51.104;-115.370;2023-01-09T06:52:55;85927.20;;;21.42
74536;BMP180;63013;51.104;-115.370;2023-01-09T06:55:23;85926.00;;;21.40
74536;BMP180;63013;51.104;-115.370;2023-01-09T06:57:52;85932.00;;;21.40
74536;BMP180;63013;51.104;-115.370;2023-01-09T07:00:20;85929.00;;;21.40
74536;BMP180;63013;51.104;-115.370;2023-01-09T07:02:47;85925.00;;;21.40
74536;BMP180;63013;51.104;-115.370;2023-01-09T07:05:15;85928.20;;;21.40
74536;BMP180;63013;51.104;-115.370;2023-01-09T07:07:42;85930.60;;;21.40
74536;BMP180;63013;51.104;-115.370;2023-01-09T07:10:10;85926.20;;;21.32
74536;BMP180;63013;51.104;-115.370;2023-01-09T07:12:38;85927.80;;;21.30
74536;BMP180;63013;51.104;-115.370;2023-01-09T07:15:06;85930.00;;;21.30
74536;BMP180;63013;51.104;-115.370;2023-01-09T07:17:34;85934.80;;;21.30
74536;BMP180;63013;51.104;-115.370;2023-01-09T07:20:01;85936.40;;;21.30
74536;BMP180;63013;51.104;-115.370;2023-01-09T07:22:29;85936.40;;;21.30
74536;BMP180;63013;51.104;-115.370;2023-01-09T07:24:56;85939.60;;;21.30
74536;BMP180;63013;51.104;-115.370;2023-01-09T07:27:23;85936.40;;;21.26
74536;BMP180;63013;51.104;-115.370;2023-01-09T07:29:51;85941.40;;;21.26
74536;BMP180;63013;51.104;-115.370;2023-01-09T07:32:18;85937.40;;;21.20
74536;BMP180;63013;51.104;-115.370;2023-01-09T07:34:46;85940.00;;;21.20
74536;BMP180;63013;51.104;-115.370;2023-01-09T07:37:18;85942.00;;;21.20
74536;BMP180;63013;51.104;-115.370;2023-01-09T07:39:46;85942.20;;;21.20
74536;BMP180;63013;51.104;-115.370;2023-01-09T07:42:13;85944.20;;;21.20
74536;BMP180;63013;51.104;-115.370;2023-01-09T07:44:41;85941.00;;;21.20
74536;BMP180;63013;51.104;-115.370;2023-01-09T07:47:09;85935.00;;;21.20
74536;BMP180;63013;51.104;-115.370;2023-01-09T07:49:36;85938.60;;;21.20
74536;BMP180;63013;51.104;-115.370;2023-01-09T07:52:04;85943.60;;;21.18
74536;BMP180;63013;51.104;-115.370;2023-01-09T07:54:31;85942.40;;;21.10
74536;BMP180;63013;51.104;-115.370;2023-01-09T07:56:58;85939.00;;;21.10
74536;BMP180;63013;51.104;-115.370;2023-01-09T07:59:25;85949.20;;;21.10
74536;BMP180;63013;51.104;-115.370;2023-01-09T08:01:55;85947.60;;;21.10
74536;BMP180;63013;51.104;-115.370;2023-01-09T08:04:23;85945.80;;;21.10
74536;BMP180;63013;51.104;-115.370;2023-01-09T08:06:51;85950.20;;;21.10
74536;BMP180;63013;51.104;-115.370;2023-01-09T08:09:22;85949.80;;;21.10
74536;BMP180;63013;51.104;-115.370;2023-01-09T08:11:49;85946.40;;;21.10
74536;BMP180;63013;51.104;-115.370;2023-01-09T08:14:17;85948.00;;;21.08
74536;BMP180;63013;51.104;-115.370;2023-01-09T08:16:44;85947.40;;;21.00
74536;BMP180;63013;51.104;-115.370;2023-01-09T08:19:11;85952.40;;;21.00
74536;BMP180;63013;51.104;-115.370;2023-01-09T08:21:39;85950.40;;;21.00
74536;BMP180;63013;51.104;-115.370;2023-01-09T08:24:07;85960.80;;;21.00
74536;BMP180;63013;51.104;-115.370;2023-01-09T08:26:35;85962.80;;;21.00
74536;BMP180;63013;51.104;-115.370;2023-01-09T08:29:02;85961.20;;;21.00
74536;BMP180;63013;51.104;-115.370;2023-01-09T08:31:29;85971.00;;;21.00
74536;BMP180;63013;51.104;-115.370;2023-01-09T08:33:57;85966.60;;;21.00
74536;BMP180;63013;51.104;-115.370;2023-01-09T08:36:24;85963.20;;;20.94
74536;BMP180;63013;51.104;-115.370;2023-01-09T08:38:51;85968.20;;;20.92
74536;BMP180;63013;51.104;-115.370;2023-01-09T08:41:19;85965.00;;;20.90
74536;BMP180;63013;51.104;-115.370;2023-01-09T08:44:04;85964.00;;;20.90
74536;BMP180;63013;51.104;-115.370;2023-01-09T08:46:50;85963.60;;;20.90
74536;BMP180;63013;51.104;-115.370;2023-01-09T08:49:37;85961.00;;;20.90
74536;BMP180;63013;51.104;-115.370;2023-01-09T08:52:06;85963.00;;;20.90
74536;BMP180;63013;51.104;-115.370;2023-01-09T08:54:34;85968.60;;;20.88
74536;BMP180;63013;51.104;-115.370;2023-01-09T08:57:06;85971.20;;;20.82
74536;BMP180;63013;51.104;-115.370;2023-01-09T08:59:34;85966.80;;;20.80
74536;BMP180;63013;51.104;-115.370;2023-01-09T09:02:02;85970.20;;;20.80
74536;BMP180;63013;51.104;-115.370;2023-01-09T09:04:29;85971.80;;;20.80
74536;BMP180;63013;51.104;-115.370;2023-01-09T09:06:57;85979.40;;;20.80
74536;BMP180;63013;51.104;-115.370;2023-01-09T09:09:24;85978.40;;;20.80
74536;BMP180;63013;51.104;-115.370;2023-01-09T09:11:51;85981.00;;;20.80
74536;BMP180;63013;51.104;-115.370;2023-01-09T09:14:19;85978.60;;;20.78
74536;BMP180;63013;51.104;-115.370;2023-01-09T09:17:04;85975.80;;;20.72
74536;BMP180;63013;51.104;-115.370;2023-01-09T09:19:32;85981.60;;;20.70
74536;BMP180;63013;51.104;-115.370;2023-01-09T09:21:59;85988.40;;;20.70
74536;BMP180;63013;51.104;-115.370;2023-01-09T09:24:26;85983.40;;;20.70
74536;BMP180;63013;51.104;-115.370;2023-01-09T09:26:54;85990.80;;;20.70
74536;BMP180;63013;51.104;-115.370;2023-01-09T09:29:21;85996.80;;;20.70
74536;BMP180;63013;51.104;-115.370;2023-01-09T09:31:49;85997.60;;;20.70
74536;BMP180;63013;51.104;-115.370;2023-01-09T09:34:16;85995.40;;;20.70
74536;BMP180;63013;51.104;-115.370;2023-01-09T09:36:45;86005.60;;;20.66
74536;BMP180;63013;51.104;-115.370;2023-01-09T09:39:12;86008.40;;;20.66
74536;BMP180;63013;51.104;-115.370;2023-01-09T09:42:11;86012.40;;;20.60
74536;BMP180;63013;51.104;-115.370;2023-01-09T09:54:13;86020.60;;;20.60
74536;BMP180;63013;51.104;-115.370;2023-01-09T09:56:51;86015.20;;;20.52
74536;BMP180;63013;51.104;-115.370;2023-01-09T09:59:34;86019.80;;;20.50
74536;BMP180;63013;51.104;-115.370;2023-01-09T10:02:26;86017.80;;;20.50
74536;BMP180;63013;51.104;-115.370;2023-01-09T10:05:28;86022.00;;;20.50
74536;BMP180;63013;51.104;-115.370;2023-01-09T10:08:12;86026.60;;;20.50
74536;BMP180;63013;51.104;-115.370;2023-01-09T10:10:52;86023.20;;;20.50
74536;BMP180;63013;51.104;-115.370;2023-01-09T10:13:23;86028.00;;;20.50
74536;BMP180;63013;51.104;-115.370;2023-01-09T10:16:34;86026.40;;;20.50
74536;BMP180;63013;51.104;-115.370;2023-01-09T10:19:49;86025.00;;;20.44
74536;BMP180;63013;51.104;-115.370;2023-01-09T10:23:02;86026.60;;;20.40
74536;BMP180;63013;51.104;-115.370;2023-01-09T10:26:10;86023.00;;;20.40
74536;BMP180;63013;51.104;-115.370;2023-01-09T10:29:28;86019.00;;;20.40
74536;BMP180;63013;51.104;-115.370;2023-01-09T10:32:12;86016.80;;;20.40
74536;BMP180;63013;51.104;-115.370;2023-01-09T10:37:43;86018.00;;;20.40
74536;BMP180;63013;51.104;-115.370;2023-01-09T10:40:29;86020.20;;;20.40
74536;BMP180;63013;51.104;-115.370;2023-01-09T10:43:38;86014.60;;;20.34
74536;BMP180;63013;51.104;-115.370;2023-01-09T10:47:04;86014.60;;;20.30
74536;BMP180;63013;51.104;-115.370;2023-01-09T10:49:15;86012.60;;;20.30
74536;BMP180;63013;51.104;-115.370;2023-01-09T10:51:50;86020.40;;;20.30
74536;BMP180;63013;51.104;-115.370;2023-01-09T10:54:21;86023.00;;;20.30
74536;BMP180;63013;51.104;-115.370;2023-01-09T10:56:56;86016.20;;;20.30
74536;BMP180;63013;51.104;-115.370;2023-01-09T10:59:24;86021.60;;;20.30
74536;BMP180;63013;51.104;-115.370;2023-01-09T11:01:56;86016.60;;;20.30
74536;BMP180;63013;51.104;-115.370;2023-01-09T11:04:28;86020.40;;;20.30
74536;BMP180;63013;51.104;-115.370;2023-01-09T11:07:23;86013.40;;;20.28
74536;BMP180;63013;51.104;-115.370;2023-01-09T11:10:02;86013.80;;;20.22
74536;BMP180;63013;51.104;-115.370;2023-01-09T11:12:33;86010.00;;;20.20
74536;BMP180;63013;51.104;-115.370;2023-01-09T11:17:52;86016.40;;;20.20
74536;BMP180;63013;51.104;-115.370;2023-01-09T11:20:23;86009.80;;;20.20
74536;BMP180;63013;51.104;-115.370;2023-01-09T11:22:56;86016.20;;;20.20
74536;BMP180;63013;51.104;-115.370;2023-01-09T11:25:28;86016.00;;;20.20
74536;BMP180;63013;51.104;-115.370;2023-01-09T11:28:15;86010.80;;;20.20
74536;BMP180;63013;51.104;-115.370;2023-01-09T11:31:00;86017.00;;;20.20
74536;BMP180;63013;51.104;-115.370;2023-01-09T11:33:33;86007.60;;;20.20
74536;BMP180;63013;51.104;-115.370;2023-01-09T11:36:14;86009.60;;;20.12
74536;BMP180;63013;51.104;-115.370;2023-01-09T11:41:21;86010.40;;;20.10
74536;BMP180;63013;51.104;-115.370;2023-01-09T11:43:52;86009.20;;;20.10
74536;BMP180;63013;51.104;-115.370;2023-01-09T11:46:38;86006.80;;;20.10
74536;BMP180;63013;51.104;-115.370;2023-01-09T11:51:43;86010.80;;;20.10
74536;BMP180;63013;51.104;-115.370;2023-01-09T11:56:45;86012.40;;;20.10
74536;BMP180;63013;51.104;-115.370;2023-01-09T11:59:18;86010.60;;;20.00
74536;BMP180;63013;51.104;-115.370;2023-01-09T12:14:01;86012.80;;;20.00
74536;BMP180;63013;51.104;-115.370;2023-01-09T12:31:40;86007.20;;;19.90
74536;BMP180;63013;51.104;-115.370;2023-01-09T12:34:51;86017.40;;;19.90
74536;BMP180;63013;51.104;-115.370;2023-01-09T12:41:02;86020.20;;;19.80
74536;BMP180;63013;51.104;-115.370;2023-01-09T12:53:26;86019.00;;;19.80
74536;BMP180;63013;51.104;-115.370;2023-01-09T12:56:26;86018.20;;;19.80
74536;BMP180;63013;51.104;-115.370;2023-01-09T12:59:33;86022.20;;;19.80
74536;BMP180;63013;51.104;-115.370;2023-01-09T13:02:19;86029.40;;;19.76
74536;BMP180;63013;51.104;-115.370;2023-01-09T13:08:04;86031.00;;;19.70
74536;BMP180;63013;51.104;-115.370;2023-01-09T13:10:45;86037.40;;;19.70
74536;BMP180;63013;51.104;-115.370;2023-01-09T13:14:00;86025.40;;;19.70
74536;BMP180;63013;51.104;-115.370;2023-01-09T13:16:38;86024.00;;;19.70
74536;BMP180;63013;51.104;-115.370;2023-01-09T13:19:37;86027.00;;;19.70
74536;BMP180;63013;51.104;-115.370;2023-01-09T13:22:16;86028.60;;;19.70
74536;BMP180;63013;51.104;-115.370;2023-01-09T13:25:14;86032.00;;;19.70
74536;BMP180;63013;51.104;-115.370;2023-01-09T13:27:59;86027.80;;;19.70
74536;BMP180;63013;51.104;-115.370;2023-01-09T13:33:30;86036.20;;;19.60
74536;BMP180;63013;51.104;-115.370;2023-01-09T13:35:59;86036.60;;;19.60
74536;BMP180;63013;51.104;-115.370;2023-01-09T13:38:33;86031.40;;;19.60
74536;BMP180;63013;51.104;-115.370;2023-01-09T13:41:13;86036.00;;;19.60
74536;BMP180;63013;51.104;-115.370;2023-01-09T13:46:54;86037.80;;;19.60
74536;BMP180;63013;51.104;-115.370;2023-01-09T13:49:32;86035.80;;;19.60
74536;BMP180;63013;51.104;-115.370;2023-01-09T14:06:13;86026.40;;;19.50
74536;BMP180;63013;51.104;-115.370;2023-01-09T14:08:43;86037.20;;;19.50
74536;BMP180;63013;51.104;-115.370;2023-01-09T14:11:19;86035.40;;;19.50
74536;BMP180;63013;51.104;-115.370;2023-01-09T14:13:58;86034.80;;;19.50
74536;BMP180;63013;51.104;-115.370;2023-01-09T14:16:26;86032.60;;;19.50
74536;BMP180;63013;51.104;-115.370;2023-01-09T14:19:25;86028.60;;;19.50
74536;BMP180;63013;51.104;-115.370;2023-01-09T14:21:57;86037.40;;;19.50
74536;BMP180;63013;51.104;-115.370;2023-01-09T14:24:52;86044.80;;;19.46
74536;BMP180;63013;51.104;-115.370;2023-01-09T14:28:03;86039.00;;;19.42
74536;BMP180;63013;51.104;-115.370;2023-01-09T14:36:09;86044.00;;;19.40
74536;BMP180;63013;51.104;-115.370;2023-01-09T14:44:37;86040.20;;;19.50
74536;BMP180;63013;51.104;-115.370;2023-01-09T14:48:04;86038.20;;;19.50
74536;BMP180;63013;51.104;-115.370;2023-01-09T14:53:29;86034.00;;;19.60
74536;BMP180;63013;51.104;-115.370;2023-01-09T14:56:00;86040.20;;;19.70
74536;BMP180;63013;51.104;-115.370;2023-01-09T14:58:36;86030.20;;;19.70
74536;BMP180;63013;51.104;-115.370;2023-01-09T15:01:18;86038.20;;;19.76
74536;BMP180;63013;51.104;-115.370;2023-01-09T15:04:04;86042.20;;;19.80
74536;BMP180;63013;51.104;-115.370;2023-01-09T15:06:36;86039.00;;;19.80
74536;BMP180;63013;51.104;-115.370;2023-01-09T15:11:53;86042.80;;;19.90
74536;BMP180;63013;51.104;-115.370;2023-01-09T15:14:30;86043.00;;;20.00
74536;BMP180;63013;51.104;-115.370;2023-01-09T15:17:03;86041.00;;;20.00
74536;BMP180;63013;51.104;-115.370;2023-01-09T15:19:30;86043.60;;;20.10
74536;BMP180;63013;51.104;-115.370;2023-01-09T15:22:04;86047.20;;;20.10
74536;BMP180;63013;51.104;-115.370;2023-01-09T15:24:33;86052.40;;;20.20
74536;BMP180;63013;51.104;-115.370;2023-01-09T15:27:10;86051.20;;;20.20
74536;BMP180;63013;51.104;-115.370;2023-01-09T15:29:37;86051.80;;;20.24
74536;BMP180;63013;51.104;-115.370;2023-01-09T15:32:24;86050.20;;;20.30
74536;BMP180;63013;51.104;-115.370;2023-01-09T15:34:54;86048.00;;;20.36
74536;BMP180;63013;51.104;-115.370;2023-01-09T15:40:02;86041.20;;;20.40
74536;BMP180;63013;51.104;-115.370;2023-01-09T15:42:37;86042.80;;;20.50
74536;BMP180;63013;51.104;-115.370;2023-01-09T15:45:38;86054.20;;;20.50
74536;BMP180;63013;51.104;-115.370;2023-01-09T15:48:31;86059.80;;;20.60
74536;BMP180;63013;51.104;-115.370;2023-01-09T15:51:09;86058.80;;;20.66
74536;BMP180;63013;51.104;-115.370;2023-01-09T15:53:44;86043.80;;;20.70
74536;BMP180;63013;51.104;-115.370;2023-01-09T15:56:16;86035.60;;;20.80
74536;BMP180;63013;51.104;-115.370;2023-01-09T15:58:50;86032.20;;;20.80
74536;BMP180;63013;51.104;-115.370;2023-01-09T16:01:32;86029.00;;;20.90
74536;BMP180;63013;51.104;-115.370;2023-01-09T16:04:14;86032.80;;;20.90
74536;BMP180;63013;51.104;-115.370;2023-01-09T16:06:51;86033.80;;;21.00
74536;BMP180;63013;51.104;-115.370;2023-01-09T16:09:30;86041.60;;;21.00
74536;BMP180;63013;51.104;-115.370;2023-01-09T16:12:01;86042.80;;;21.10
74536;BMP180;63013;51.104;-115.370;2023-01-09T16:14:40;86051.40;;;21.20
74536;BMP180;63013;51.104;-115.370;2023-01-09T16:17:16;86063.00;;;21.30
74536;BMP180;63013;51.104;-115.370;2023-01-09T16:19:55;86070.00;;;21.30
74536;BMP180;63013;51.104;-115.370;2023-01-09T16:22:31;86076.40;;;21.40
74536;BMP180;63013;51.104;-115.370;2023-01-09T16:25:32;86082.80;;;21.40
74536;BMP180;63013;51.104;-115.370;2023-01-09T16:28:25;86091.80;;;21.40